Time;durP1;ratioP1;P1;durP2;ratioP2;P2;SDS_P1;SDS_P2;PMS_P1;PMS_P2;Temp;Humidity;BMP_temperature;BMP_pressure;BME280_temperature;BME280_humidity;BME280_pressure;Samples;Min_cycle;Max_cycle;Signal;HPM_P1;HPM_P2
2022/04/12 00:01:14;;;;;;;21.20;11.20;;;;;;;;;;5027977;28;20994;-72
2022/04/12 00:03:40;;;;;;;21.13;11.47;;;;;;;;;;5017360;28;20486;-72
2022/04/12 00:06:06;;;;;;;16.03;10.40;;;;;;;;;;5006866;28;20482;-72
2022/04/12 00:08:32;;;;;;;10.13;7.17;;;;;;;;;;5020894;28;20537;-72
2022/04/12 00:11:14;;;;;;;13.00;7.57;;;;;;;;;;5014614;28;20452;-71
2022/04/12 00:13:40;;;;;;;12.37;7.87;;;;;;;;;;5018913;28;20448;-73
2022/04/12 00:16:06;;;;;;;12.50;6.80;;;;;;;;;;5005755;28;20522;-72
2022/04/12 00:21:17;;;;;;;6.80;4.40;;;;;;;;;;5009265;28;20441;-71
2022/04/12 00:23:43;;;;;;;9.17;5.67;;;;;;;;;;5012469;28;20432;-72
2022/04/12 00:26:09;;;;;;;5.27;3.53;;;;;;;;;;5008717;28;20518;-71
2022/04/12 00:28:35;;;;;;;9.17;4.77;;;;;;;;;;5016817;28;21198;-72
2022/04/12 00:31:02;;;;;;;5.03;3.63;;;;;;;;;;4999200;28;20443;-74
2022/04/12 00:33:29;;;;;;;7.40;4.63;;;;;;;;;;5016793;28;20455;-71
2022/04/12 00:35:58;;;;;;;5.50;3.90;;;;;;;;;;5004310;28;20923;-72
2022/04/12 00:38:24;;;;;;;9.10;4.90;;;;;;;;;;5018487;28;20436;-72
2022/04/12 00:40:50;;;;;;;5.20;4.40;;;;;;;;;;4997421;28;20448;-71
2022/04/12 00:43:17;;;;;;;7.50;5.40;;;;;;;;;;5019443;28;20432;-72
2022/04/12 00:45:45;;;;;;;5.97;4.07;;;;;;;;;;5009161;28;20464;-72
2022/04/12 00:48:11;;;;;;;5.90;4.73;;;;;;;;;;5017910;28;20497;-71
2022/04/12 00:50:37;;;;;;;6.80;3.90;;;;;;;;;;5009360;28;20431;-72
2022/04/12 00:53:03;;;;;;;6.57;4.50;;;;;;;;;;5006031;28;21010;-72
2022/04/12 00:55:30;;;;;;;8.33;4.97;;;;;;;;;;5006321;28;20451;-72
2022/04/12 00:57:56;;;;;;;6.00;4.57;;;;;;;;;;5032872;28;20490;-71
2022/04/12 01:01:00;;;;;;;;;;;;;;;;;;;;;
2022/04/12 01:03:27;;;;;;;4.90;4.10;;;;;;;;;;5008988;28;20459;-72
2022/04/12 01:06:00;;;;;;;6.60;4.50;;;;;;;;;;4987541;28;20447;-73
2022/04/12 01:08:27;;;;;;;5.43;4.03;;;;;;;;;;5021320;28;20493;-72
2022/04/12 01:11:10;;;;;;;4.40;3.93;;;;;;;;;;5007969;28;20439;-72
2022/04/12 01:13:42;;;;;;;9.13;5.40;;;;;;;;;;5007272;28;21138;-71
2022/04/12 01:16:35;;;;;;;;;;;;;;;;;;;;;
2022/04/12 01:19:02;;;;;;;4.67;4.10;;;;;;;;;;5011353;28;20455;-72
2022/04/12 01:21:29;;;;;;;8.30;4.50;;;;;;;;;;4992026;28;20678;-71
2022/04/12 01:24:01;;;;;;;5.83;3.70;;;;;;;;;;5011275;28;20452;-72
2022/04/12 01:26:28;;;;;;;11.10;5.83;;;;;;;;;;5021813;28;20695;-72
2022/04/12 01:28:54;;;;;;;6.50;4.50;;;;;;;;;;4995640;28;20479;-72
2022/04/12 01:31:20;;;;;;;5.13;4.53;;;;;;;;;;5007738;28;20433;-71
2022/04/12 01:33:46;;;;;;;7.30;4.77;;;;;;;;;;4986806;28;20459;-72
2022/04/12 01:36:12;;;;;;;6.67;4.30;;;;;;;;;;5012378;28;20431;-71
2022/04/12 01:38:38;;;;;;;5.43;4.30;;;;;;;;;;4995190;28;20444;-71
2022/04/12 01:41:04;;;;;;;6.47;4.23;;;;;;;;;;5008126;28;20440;-71
2022/04/12 01:43:30;;;;;;;5.00;3.80;;;;;;;;;;4994318;28;20680;-71
2022/04/12 01:46:11;;;;;;;4.90;4.03;;;;;;;;;;5012217;28;20444;-72
2022/04/12 01:48:37;;;;;;;7.03;4.27;;;;;;;;;;4996600;28;20470;-72
2022/04/12 01:51:03;;;;;;;5.70;4.67;;;;;;;;;;5013896;28;20547;-71
2022/04/12 01:53:29;;;;;;;7.77;5.60;;;;;;;;;;4995734;28;20444;-72
2022/04/12 01:55:55;;;;;;;7.67;5.00;;;;;;;;;;5012869;28;20913;-72
2022/04/12 01:58:21;;;;;;;6.90;4.70;;;;;;;;;;5011307;28;20477;-72
2022/04/12 02:00:47;;;;;;;8.10;5.70;;;;;;;;;;5015624;28;20906;-72
2022/04/12 02:03:13;;;;;;;8.73;5.17;;;;;;;;;;4992873;28;20446;-71
2022/04/12 02:05:39;;;;;;;6.40;3.93;;;;;;;;;;5018650;28;20983;-71
2022/04/12 02:08:06;;;;;;;4.10;3.47;;;;;;;;;;5011938;28;21381;-71
2022/04/12 02:10:32;;;;;;;6.97;4.77;;;;;;;;;;5014810;28;20432;-72
2022/04/12 02:12:58;;;;;;;6.13;3.77;;;;;;;;;;4997192;28;20436;-72
2022/04/12 02:15:24;;;;;;;5.20;3.77;;;;;;;;;;5010789;28;20454;-71
2022/04/12 02:17:50;;;;;;;5.40;3.70;;;;;;;;;;5015860;28;20451;-71
2022/04/12 02:20:16;;;;;;;6.50;4.67;;;;;;;;;;5017830;28;20933;-71
2022/04/12 02:22:42;;;;;;;7.00;4.03;;;;;;;;;;5004229;28;20452;-73
2022/04/12 02:25:08;;;;;;;5.70;4.30;;;;;;;;;;5022903;28;20432;-71
2022/04/12 02:27:34;;;;;;;6.73;4.50;;;;;;;;;;5005214;28;20790;-71
2022/04/12 02:30:01;;;;;;;5.83;4.40;;;;;;;;;;5008598;28;20483;-71
2022/04/12 02:32:36;;;;;;;10.43;4.50;;;;;;;;;;5011830;28;20504;-72
2022/04/12 02:35:03;;;;;;;5.93;4.10;;;;;;;;;;5006979;28;21093;-70
2022/04/12 02:37:29;;;;;;;7.63;4.27;;;;;;;;;;5023037;28;20436;-71
2022/04/12 02:39:55;;;;;;;4.40;3.83;;;;;;;;;;5008318;28;20435;-72
2022/04/12 02:42:21;;;;;;;6.23;4.70;;;;;;;;;;5016796;28;20441;-72
2022/04/12 02:44:47;;;;;;;6.50;4.23;;;;;;;;;;4998525;28;20457;-71
2022/04/12 02:47:13;;;;;;;7.00;4.17;;;;;;;;;;5019677;28;20439;-71
2022/04/12 02:49:38;;;;;;;6.10;3.43;;;;;;;;;;4999446;28;20486;-72
2022/04/12 02:52:11;;;;;;;6.30;4.30;;;;;;;;;;5017537;28;20534;-72
2022/04/12 02:54:37;;;;;;;6.27;4.67;;;;;;;;;;5015672;28;20506;-71
2022/04/12 02:57:03;;;;;;;5.27;3.70;;;;;;;;;;5010660;28;20436;-72
2022/04/12 02:59:29;;;;;;;7.73;4.77;;;;;;;;;;5000043;28;20937;-73
2022/04/12 03:01:55;;;;;;;6.50;4.70;;;;;;;;;;5020428;28;20531;-72
2022/04/12 03:04:21;;;;;;;6.13;4.07;;;;;;;;;;5000972;28;20498;-72
2022/04/12 03:06:47;;;;;;;5.73;4.73;;;;;;;;;;5021419;28;20530;-71
2022/04/12 03:09:13;;;;;;;5.40;4.30;;;;;;;;;;5006679;28;20573;-71
2022/04/12 03:11:39;;;;;;;6.93;5.10;;;;;;;;;;5014784;28;20436;-71
2022/04/12 03:14:06;;;;;;;7.87;4.77;;;;;;;;;;5016893;28;20440;-71
2022/04/12 03:16:32;;;;;;;8.60;5.40;;;;;;;;;;5012452;28;20467;-72
2022/04/12 03:18:58;;;;;;;8.00;4.63;;;;;;;;;;4993721;28;20559;-71
2022/04/12 03:21:24;;;;;;;7.93;4.97;;;;;;;;;;5017138;28;20424;-71
2022/04/12 03:23:50;;;;;;;12.40;5.33;;;;;;;;;;4998384;28;20447;-71
2022/04/12 03:26:16;;;;;;;7.53;5.40;;;;;;;;;;5012374;28;20424;-71
2022/04/12 03:28:42;;;;;;;8.20;5.27;;;;;;;;;;4998361;28;20691;-72
2022/04/12 03:31:08;;;;;;;5.23;4.70;;;;;;;;;;5015907;28;20523;-72
2022/04/12 03:33:34;;;;;;;6.50;5.13;;;;;;;;;;5000412;28;20502;-71
2022/04/12 03:36:00;;;;;;;7.17;5.40;;;;;;;;;;5035063;28;20445;-71
2022/04/12 03:38:26;;;;;;;5.87;5.20;;;;;;;;;;4989852;28;20552;-71
2022/04/12 03:40:52;;;;;;;7.10;5.03;;;;;;;;;;5022325;28;20442;-71
2022/04/12 03:43:18;;;;;;;7.20;5.60;;;;;;;;;;5010430;28;20464;-71
2022/04/12 03:45:44;;;;;;;7.23;4.90;;;;;;;;;;5016789;28;20962;-72
2022/04/12 03:48:10;;;;;;;4.60;3.60;;;;;;;;;;4992569;28;20589;-71
2022/04/12 03:50:37;;;;;;;6.27;4.47;;;;;;;;;;5016214;28;20448;-72
2022/04/12 03:53:03;;;;;;;5.10;4.33;;;;;;;;;;5022325;28;20436;-72
2022/04/12 03:55:34;;;;;;;9.80;5.87;;;;;;;;;;5016285;28;20443;-72
2022/04/12 03:58:03;;;;;;;7.97;5.57;;;;;;;;;;4996487;28;20548;-72
2022/04/12 04:00:29;;;;;;;8.07;5.07;;;;;;;;;;5010839;28;20458;-72
2022/04/12 04:03:18;;;;;;;5.20;4.70;;;;;;;;;;5004842;28;21079;-71
2022/04/12 04:05:48;;;;;;;8.13;5.10;;;;;;;;;;5011779;28;20459;-71
2022/04/12 04:08:28;;;;;;;8.43;4.17;;;;;;;;;;5011257;28;20871;-72
2022/04/12 04:10:54;;;;;;;7.63;5.23;;;;;;;;;;5010607;28;20872;-71
2022/04/12 04:13:20;;;;;;;6.40;4.80;;;;;;;;;;5017205;28;20428;-72
2022/04/12 04:15:46;;;;;;;6.93;4.90;;;;;;;;;;5012643;28;20444;-71
2022/04/12 04:18:13;;;;;;;10.47;4.50;;;;;;;;;;5013238;28;20436;-71
2022/04/12 04:20:39;;;;;;;6.80;5.07;;;;;;;;;;5000419;28;20998;-71
2022/04/12 04:23:05;;;;;;;7.10;5.00;;;;;;;;;;5014500;28;20440;-71
2022/04/12 04:25:31;;;;;;;4.80;3.90;;;;;;;;;;4989908;28;20943;-71
2022/04/12 04:27:57;;;;;;;5.73;4.30;;;;;;;;;;5019690;28;20448;-72
2022/04/12 04:30:24;;;;;;;5.93;4.40;;;;;;;;;;4999896;28;20444;-72
2022/04/12 04:32:50;;;;;;;6.23;4.40;;;;;;;;;;5004416;28;20435;-72
2022/04/12 04:35:16;;;;;;;6.93;4.50;;;;;;;;;;4999249;28;20459;-72
2022/04/12 04:37:46;;;;;;;7.60;4.53;;;;;;;;;;5043777;28;20448;-71
2022/04/12 04:40:29;;;;;;;6.93;5.20;;;;;;;;;;4997784;28;20889;-73
2022/04/12 04:42:56;;;;;;;7.90;4.53;;;;;;;;;;5019991;28;20500;-69
2022/04/12 04:45:22;;;;;;;8.30;5.27;;;;;;;;;;5000854;28;20447;-72
2022/04/12 04:47:51;;;;;;;5.63;4.47;;;;;;;;;;5017375;28;20436;-72
2022/04/12 04:50:18;;;;;;;9.87;5.20;;;;;;;;;;5011037;28;20502;-73
2022/04/12 04:52:44;;;;;;;6.67;4.03;;;;;;;;;;5008515;28;20435;-73
2022/04/12 04:55:10;;;;;;;7.93;4.50;;;;;;;;;;5005413;28;21011;-73
2022/04/12 04:57:40;;;;;;;5.77;4.70;;;;;;;;;;5028409;28;20440;-71
2022/04/12 05:00:07;;;;;;;8.00;4.73;;;;;;;;;;5004058;28;20447;-71
2022/04/12 05:02:34;;;;;;;7.17;5.27;;;;;;;;;;5020412;28;20435;-72
2022/04/12 05:05:13;;;;;;;7.40;5.07;;;;;;;;;;4984278;28;20538;-72
2022/04/12 05:07:40;;;;;;;6.13;4.70;;;;;;;;;;5004293;28;20518;-72
2022/04/12 05:10:39;;;;;;;6.43;4.53;;;;;;;;;;5023426;28;20805;-72
2022/04/12 05:13:07;;;;;;;6.03;4.83;;;;;;;;;;5012765;28;20439;-72
2022/04/12 05:15:37;;;;;;;10.00;4.60;;;;;;;;;;5018646;28;20457;-72
2022/04/12 05:18:04;;;;;;;7.33;4.97;;;;;;;;;;5002505;28;20436;-71
2022/04/12 05:20:39;;;;;;;6.03;4.57;;;;;;;;;;5031283;28;20458;-73
2022/04/12 05:23:06;;;;;;;5.83;4.50;;;;;;;;;;5007709;28;21098;-71
2022/04/12 05:25:37;;;;;;;5.80;4.73;;;;;;;;;;5024451;28;20975;-73
2022/04/12 05:28:03;;;;;;;5.07;4.30;;;;;;;;;;4995227;28;20452;-71
2022/04/12 05:30:30;;;;;;;6.40;4.00;;;;;;;;;;5015435;28;20454;-74
2022/04/12 05:32:56;;;;;;;5.27;4.00;;;;;;;;;;5006934;28;20517;-72
2022/04/12 05:35:22;;;;;;;5.40;4.40;;;;;;;;;;5025510;28;20609;-72
2022/04/12 05:37:49;;;;;;;5.73;4.50;;;;;;;;;;5010603;28;20468;-71
2022/04/12 05:40:15;;;;;;;11.70;5.47;;;;;;;;;;5026187;28;20427;-72
2022/04/12 05:42:41;;;;;;;6.50;4.40;;;;;;;;;;4991103;28;20609;-72
2022/04/12 05:45:08;;;;;;;8.03;5.70;;;;;;;;;;5023784;28;20470;-72
2022/04/12 05:47:44;;;;;;;7.80;6.90;;;;;;;;;;5001196;28;20871;-73
2022/04/12 05:50:10;;;;;;;12.67;6.50;;;;;;;;;;5009807;28;20578;-71
2022/04/12 05:52:38;;;;;;;9.17;6.63;;;;;;;;;;4994441;28;20483;-71
2022/04/12 05:55:04;;;;;;;10.03;6.60;;;;;;;;;;5021268;28;20439;-71
2022/04/12 05:57:31;;;;;;;12.90;7.47;;;;;;;;;;5022034;28;20455;-71
2022/04/12 05:59:57;;;;;;;11.27;7.27;;;;;;;;;;5000604;28;20453;-72
2022/04/12 06:02:23;;;;;;;14.97;7.80;;;;;;;;;;5018300;28;20796;-73
2022/04/12 06:04:48;;;;;;;10.70;7.03;;;;;;;;;;4996767;28;20450;-73
2022/04/12 06:07:14;;;;;;;10.30;7.40;;;;;;;;;;5019776;28;20442;-73
2022/04/12 06:09:40;;;;;;;10.00;7.17;;;;;;;;;;5008102;28;20475;-73
2022/04/12 06:12:07;;;;;;;7.53;5.80;;;;;;;;;;5023320;28;20449;-71
2022/04/12 06:14:42;;;;;;;6.87;6.27;;;;;;;;;;5001633;28;20427;-72
2022/04/12 06:17:10;;;;;;;7.70;5.53;;;;;;;;;;5018543;28;21740;-71
2022/04/12 06:19:36;;;;;;;8.73;6.50;;;;;;;;;;5003588;28;21156;-72
2022/04/12 06:22:03;;;;;;;6.47;5.80;;;;;;;;;;5026481;28;20461;-70
2022/04/12 06:24:32;;;;;;;6.27;5.40;;;;;;;;;;5007736;28;20466;-74
2022/04/12 06:26:58;;;;;;;9.23;5.90;;;;;;;;;;5028448;28;20542;-72
2022/04/12 06:29:30;;;;;;;7.90;5.60;;;;;;;;;;5015736;28;20486;-70
2022/04/12 06:31:56;;;;;;;12.33;5.10;;;;;;;;;;5010336;28;20439;-71
2022/04/12 06:34:34;;;;;;;12.77;5.97;;;;;;;;;;5013852;28;20479;-72
2022/04/12 06:37:00;;;;;;;6.90;5.33;;;;;;;;;;5028406;28;21066;-72
2022/04/12 06:39:26;;;;;;;8.17;5.80;;;;;;;;;;5009519;28;20443;-72
2022/04/12 06:41:52;;;;;;;7.27;5.40;;;;;;;;;;5024629;28;20438;-71
2022/04/12 06:44:18;;;;;;;6.60;5.23;;;;;;;;;;5012770;28;20431;-71
2022/04/12 06:46:44;;;;;;;8.13;6.33;;;;;;;;;;5028908;28;21119;-71
2022/04/12 06:49:11;;;;;;;7.27;5.40;;;;;;;;;;5001520;28;21022;-72
2022/04/12 06:51:38;;;;;;;12.37;5.77;;;;;;;;;;5024497;28;20572;-71
2022/04/12 06:54:04;;;;;;;8.43;5.40;;;;;;;;;;5011267;28;21007;-69
2022/04/12 06:56:30;;;;;;;8.17;5.20;;;;;;;;;;5030487;28;20453;-72
2022/04/12 06:58:56;;;;;;;6.67;4.53;;;;;;;;;;5008708;28;20736;-70
2022/04/12 07:01:22;;;;;;;5.80;5.20;;;;;;;;;;5006060;28;20582;-72
2022/04/12 07:03:48;;;;;;;6.83;5.20;;;;;;;;;;4993310;28;20469;-72
2022/04/12 07:06:14;;;;;;;5.63;4.50;;;;;;;;;;5002240;28;20439;-71
2022/04/12 07:08:40;;;;;;;5.37;4.13;;;;;;;;;;5001830;28;20466;-71
2022/04/12 07:11:11;;;;;;;7.47;4.87;;;;;;;;;;5025612;28;21826;-73
2022/04/12 07:13:37;;;;;;;5.63;4.97;;;;;;;;;;5024435;28;20514;-71
2022/04/12 07:16:03;;;;;;;7.10;3.73;;;;;;;;;;5030648;28;20462;-72
2022/04/12 07:18:29;;;;;;;8.33;4.63;;;;;;;;;;5012208;28;20447;-73
2022/04/12 07:20:55;;;;;;;6.83;4.97;;;;;;;;;;5025554;28;20450;-72
2022/04/12 07:23:21;;;;;;;5.13;3.60;;;;;;;;;;5012882;28;20801;-72
2022/04/12 07:25:47;;;;;;;6.70;4.27;;;;;;;;;;5028608;28;20530;-72
2022/04/12 07:28:13;;;;;;;5.23;4.07;;;;;;;;;;5004934;28;20435;-74
2022/04/12 07:30:39;;;;;;;7.70;4.33;;;;;;;;;;5026177;28;21184;-72
2022/04/12 07:33:06;;;;;;;4.43;3.77;;;;;;;;;;4999944;28;20423;-74
2022/04/12 07:35:31;;;;;;;7.07;4.53;;;;;;;;;;5026591;28;20439;-73
2022/04/12 07:37:58;;;;;;;6.93;5.57;;;;;;;;;;5009098;28;20481;-72
2022/04/12 07:40:24;;;;;;;4.93;4.40;;;;;;;;;;5026721;28;20434;-74
2022/04/12 07:43:00;;;;;;;6.70;3.90;;;;;;;;;;5005157;28;22532;-73
2022/04/12 07:45:26;;;;;;;4.40;3.47;;;;;;;;;;5029135;28;20439;-72
2022/04/12 07:50:56;;;;;;;9.13;3.97;;;;;;;;;;5018221;28;20469;-71
2022/04/12 07:53:22;;;;;;;7.10;3.90;;;;;;;;;;5024168;28;20442;-71
2022/04/12 07:55:48;;;;;;;6.57;4.30;;;;;;;;;;5026259;28;20444;-72
2022/04/12 07:58:17;;;;;;;12.00;5.00;;;;;;;;;;5005216;28;20643;-72
2022/04/12 08:00:43;;;;;;;6.03;4.40;;;;;;;;;;5025628;28;20443;-72
2022/04/12 08:03:09;;;;;;;5.30;4.10;;;;;;;;;;5003237;28;21013;-72
2022/04/12 08:05:36;;;;;;;9.20;4.40;;;;;;;;;;5031816;28;21237;-72
2022/04/12 08:08:02;;;;;;;5.17;3.80;;;;;;;;;;5008684;28;20796;-72
2022/04/12 08:10:28;;;;;;;8.17;4.43;;;;;;;;;;5024917;28;20469;-72
2022/04/12 08:12:55;;;;;;;6.63;5.10;;;;;;;;;;5008622;28;20442;-71
2022/04/12 08:15:22;;;;;;;10.87;5.30;;;;;;;;;;5010275;28;20448;-73
2022/04/12 08:17:48;;;;;;;9.03;4.00;;;;;;;;;;5021759;28;20456;-72
2022/04/12 08:20:14;;;;;;;5.73;4.77;;;;;;;;;;5023951;28;20427;-72
2022/04/12 08:25:33;;;;;;;4.73;3.43;;;;;;;;;;5019729;28;20513;-71
2022/04/12 08:28:16;;;;;;;6.00;4.37;;;;;;;;;;5018618;28;20483;-72
2022/04/12 08:30:42;;;;;;;5.13;3.33;;;;;;;;;;5026010;28;20486;-71
2022/04/12 08:33:08;;;;;;;10.40;3.57;;;;;;;;;;4999484;28;20697;-72
2022/04/12 08:35:34;;;;;;;5.07;3.70;;;;;;;;;;5027402;28;20537;-72
2022/04/12 08:41:04;;;;;;;4.50;3.33;;;;;;;;;;5023530;28;20633;-72
2022/04/12 08:43:54;;;;;;;4.27;3.50;;;;;;;;;;4998814;28;20447;-72
2022/04/12 08:46:20;;;;;;;5.00;3.37;;;;;;;;;;5018615;28;20477;-71
2022/04/12 08:48:57;;;;;;;4.60;3.50;;;;;;;;;;5014185;28;21063;-72
2022/04/12 08:51:27;;;;;;;7.70;4.07;;;;;;;;;;5028452;28;20513;-74
2022/04/12 08:54:20;;;;;;;7.33;3.53;;;;;;;;;;5022493;28;21152;-74
2022/04/12 08:56:51;;;;;;;4.70;3.10;;;;;;;;;;5053420;28;20993;-73
2022/04/12 08:59:17;;;;;;;4.63;3.13;;;;;;;;;;5024269;28;20576;-73
2022/04/12 09:01:43;;;;;;;4.93;3.27;;;;;;;;;;5023851;28;20503;-72
2022/04/12 09:04:10;;;;;;;5.60;3.30;;;;;;;;;;5005690;28;20443;-73
2022/04/12 09:06:36;;;;;;;4.30;3.13;;;;;;;;;;5025199;28;20472;-72
2022/04/12 09:09:19;;;;;;;3.50;2.93;;;;;;;;;;5017157;28;20484;-74
2022/04/12 09:11:58;;;;;;;4.23;3.17;;;;;;;;;;5016335;28;20858;-71
2022/04/12 09:14:56;;;;;;;10.37;2.97;;;;;;;;;;5017913;28;20994;-74
2022/04/12 09:17:35;;;;;;;3.77;2.53;;;;;;;;;;5015794;28;20799;-72
2022/04/12 09:20:01;;;;;;;4.37;2.97;;;;;;;;;;5003577;28;20440;-73
2022/04/12 09:22:28;;;;;;;4.60;3.20;;;;;;;;;;5016270;28;21191;-73
2022/04/12 09:25:01;;;;;;;5.97;2.97;;;;;;;;;;5024778;28;20447;-72
2022/04/12 09:27:33;;;;;;;4.20;2.70;;;;;;;;;;5011332;28;20447;-73
2022/04/12 09:30:03;;;;;;;6.40;2.57;;;;;;;;;;5020485;28;20494;-72
2022/04/12 09:32:30;;;;;;;3.90;2.47;;;;;;;;;;5009320;28;20493;-72
2022/04/12 09:34:56;;;;;;;6.63;2.97;;;;;;;;;;5024539;28;20436;-74
2022/04/12 09:37:24;;;;;;;3.57;3.13;;;;;;;;;;5004036;28;20466;-76
2022/04/12 09:39:57;;;;;;;4.40;3.10;;;;;;;;;;5022927;28;20445;-72
2022/04/12 09:42:38;;;;;;;4.00;2.90;;;;;;;;;;5010409;28;20446;-72
2022/04/12 09:45:08;;;;;;;11.23;2.80;;;;;;;;;;5025665;28;20489;-72
2022/04/12 09:47:38;;;;;;;4.70;2.53;;;;;;;;;;5004905;28;20525;-72
2022/04/12 09:50:05;;;;;;;3.73;2.40;;;;;;;;;;5021714;28;20647;-71
2022/04/12 09:52:31;;;;;;;9.73;3.63;;;;;;;;;;5001243;28;20510;-72
2022/04/12 09:54:57;;;;;;;5.03;2.80;;;;;;;;;;5002954;28;20442;-73
2022/04/12 09:57:26;;;;;;;7.70;2.23;;;;;;;;;;5018104;28;20423;-72
2022/04/12 09:59:55;;;;;;;4.43;2.70;;;;;;;;;;5025472;28;20442;-72
2022/04/12 10:02:25;;;;;;;4.30;2.50;;;;;;;;;;5000770;28;20446;-72
2022/04/12 10:04:52;;;;;;;4.00;3.37;;;;;;;;;;5022266;28;20453;-71
2022/04/12 10:07:18;;;;;;;6.00;2.87;;;;;;;;;;5023054;28;21015;-73
2022/04/12 10:09:44;;;;;;;5.60;2.73;;;;;;;;;;5024872;28;20477;-73
2022/04/12 10:12:10;;;;;;;2.77;2.40;;;;;;;;;;5001156;28;21765;-73
2022/04/12 10:14:37;;;;;;;5.70;2.87;;;;;;;;;;5025843;28;20446;-73
2022/04/12 10:17:03;;;;;;;6.00;3.30;;;;;;;;;;5000564;28;21223;-73
2022/04/12 10:19:29;;;;;;;4.37;2.90;;;;;;;;;;5022661;28;21009;-72
2022/04/12 10:21:59;;;;;;;5.33;2.73;;;;;;;;;;5006191;28;20572;-73
2022/04/12 10:24:27;;;;;;;3.63;2.53;;;;;;;;;;5021170;28;20493;-72
2022/04/12 10:26:53;;;;;;;2.87;2.03;;;;;;;;;;5023643;28;20446;-72
2022/04/12 10:29:19;;;;;;;6.80;2.47;;;;;;;;;;5025232;28;20594;-73
2022/04/12 10:35:14;;;;;;;3.20;2.47;;;;;;;;;;5010629;28;20455;-74
2022/04/12 10:37:40;;;;;;;2.87;2.03;;;;;;;;;;5027605;28;20477;-71
2022/04/12 10:40:07;;;;;;;5.07;2.30;;;;;;;;;;5020577;28;20431;-73
2022/04/12 10:42:33;;;;;;;4.10;2.23;;;;;;;;;;5011168;28;20809;-72
2022/04/12 10:45:28;;;;;;;5.73;2.30;;;;;;;;;;5012579;28;20698;-72
2022/04/12 10:47:57;;;;;;;3.23;2.17;;;;;;;;;;5027190;28;20478;-71
2022/04/12 10:50:23;;;;;;;4.33;2.70;;;;;;;;;;5002580;28;21360;-72
2022/04/12 10:52:49;;;;;;;3.50;2.50;;;;;;;;;;5020586;28;20450;-73
2022/04/12 10:55:18;;;;;;;4.20;2.37;;;;;;;;;;4997029;28;20539;-72
2022/04/12 10:57:45;;;;;;;4.80;2.80;;;;;;;;;;5027863;28;20497;-70
2022/04/12 11:00:14;;;;;;;4.43;2.23;;;;;;;;;;5025335;28;20653;-71
2022/04/12 11:02:41;;;;;;;3.70;2.30;;;;;;;;;;5030119;28;20489;-71
2022/04/12 11:08:14;;;;;;;3.60;2.60;;;;;;;;;;5028676;28;20434;-71
2022/04/12 11:10:40;;;;;;;3.13;2.20;;;;;;;;;;5006220;28;21062;-71
2022/04/12 11:13:07;;;;;;;3.50;2.30;;;;;;;;;;5029527;28;20496;-71
2022/04/12 11:15:33;;;;;;;3.30;2.10;;;;;;;;;;5005789;28;20451;-70
2022/04/12 11:18:09;;;;;;;6.63;2.60;;;;;;;;;;5024149;28;20450;-71
2022/04/12 11:20:35;;;;;;;2.80;1.93;;;;;;;;;;5008046;28;20543;-71
2022/04/12 11:23:07;;;;;;;3.23;2.17;;;;;;;;;;5004154;28;20466;-71
2022/04/12 11:25:33;;;;;;;3.40;1.93;;;;;;;;;;5029463;28;20478;-71
2022/04/12 11:27:59;;;;;;;7.17;2.07;;;;;;;;;;5008445;28;21755;-71
2022/04/12 11:30:26;;;;;;;3.30;2.17;;;;;;;;;;5024682;28;20483;-73
2022/04/12 11:32:55;;;;;;;3.30;2.03;;;;;;;;;;5007394;28;20445;-72
2022/04/12 11:35:22;;;;;;;3.10;2.47;;;;;;;;;;5028521;28;20473;-72
2022/04/12 11:37:48;;;;;;;2.73;1.80;;;;;;;;;;5002026;28;20434;-72
2022/04/12 11:40:15;;;;;;;3.53;2.20;;;;;;;;;;5022583;28;20432;-71
2022/04/12 11:42:41;;;;;;;3.43;2.27;;;;;;;;;;4999840;28;20457;-72
2022/04/12 11:45:07;;;;;;;4.13;2.30;;;;;;;;;;5019601;28;20449;-71
2022/04/12 11:47:59;;;;;;;3.90;2.33;;;;;;;;;;5011253;28;20908;-73
2022/04/12 11:50:26;;;;;;;4.60;3.03;;;;;;;;;;5025630;28;20491;-72
2022/04/12 11:52:53;;;;;;;3.20;2.30;;;;;;;;;;5003283;28;20506;-72
2022/04/12 11:55:19;;;;;;;4.00;2.17;;;;;;;;;;5025642;28;20443;-72
2022/04/12 11:57:53;;;;;;;4.93;2.00;;;;;;;;;;5013786;28;20461;-73
2022/04/12 12:00:19;;;;;;;2.67;1.97;;;;;;;;;;5027508;28;20442;-72
2022/04/12 12:02:48;;;;;;;2.97;2.10;;;;;;;;;;5020575;28;20523;-72
2022/04/12 12:05:14;;;;;;;3.70;2.33;;;;;;;;;;5029466;28;20465;-72
2022/04/12 12:10:43;;;;;;;3.63;1.50;;;;;;;;;;5015144;28;20931;-71
2022/04/12 12:13:09;;;;;;;5.90;1.90;;;;;;;;;;4996280;28;20834;-71
2022/04/12 12:15:36;;;;;;;2.40;1.70;;;;;;;;;;5023869;28;20541;-71
2022/04/12 12:18:18;;;;;;;3.90;1.77;;;;;;;;;;5012627;28;20437;-71
2022/04/12 12:20:44;;;;;;;4.57;2.83;;;;;;;;;;5023368;28;21150;-71
2022/04/12 12:23:10;;;;;;;3.47;2.13;;;;;;;;;;5023243;28;20435;-71
2022/04/12 12:25:59;;;;;;;3.70;1.83;;;;;;;;;;5001215;28;20310;-72
2022/04/12 12:28:26;;;;;;;5.33;1.60;;;;;;;;;;5023783;28;20892;-72
2022/04/12 12:31:02;;;;;;;2.87;1.83;;;;;;;;;;5005729;28;20459;-72
2022/04/12 12:33:38;;;;;;;3.80;2.00;;;;;;;;;;5025437;28;20489;-72
2022/04/12 12:36:07;;;;;;;3.10;1.97;;;;;;;;;;5025357;28;21085;-72
2022/04/12 12:38:33;;;;;;;6.83;2.33;;;;;;;;;;5022750;28;20472;-72
2022/04/12 12:40:59;;;;;;;2.60;2.10;;;;;;;;;;5008263;28;20486;-71
2022/04/12 12:43:30;;;;;;;3.03;2.00;;;;;;;;;;5026199;28;20440;-72
2022/04/12 12:45:56;;;;;;;2.90;2.10;;;;;;;;;;5003490;28;21007;-71
2022/04/12 12:48:22;;;;;;;2.80;2.07;;;;;;;;;;5029451;28;20454;-71
2022/04/12 12:50:48;;;;;;;3.43;1.70;;;;;;;;;;5015866;28;20461;-72
2022/04/12 12:53:15;;;;;;;3.13;1.90;;;;;;;;;;5032916;28;20439;-71
2022/04/12 12:55:42;;;;;;;13.27;2.30;;;;;;;;;;5006889;28;20468;-72
2022/04/12 12:58:12;;;;;;;2.57;1.80;;;;;;;;;;5037340;28;20511;-71
2022/04/12 13:00:38;;;;;;;3.50;1.90;;;;;;;;;;5006248;28;20540;-71
2022/04/12 13:03:05;;;;;;;5.50;2.23;;;;;;;;;;5030272;28;20443;-71
2022/04/12 13:05:31;;;;;;;6.83;1.63;;;;;;;;;;5007774;28;22414;-71
2022/04/12 13:07:58;;;;;;;3.60;1.93;;;;;;;;;;5028044;28;20458;-71
2022/04/12 13:10:46;;;;;;;2.87;1.33;;;;;;;;;;5015518;28;20482;-72
2022/04/12 13:13:12;;;;;;;2.50;1.50;;;;;;;;;;5030329;28;20442;-71
2022/04/12 13:15:38;;;;;;;2.20;1.40;;;;;;;;;;5028491;28;20443;-71
2022/04/12 13:18:04;;;;;;;2.13;1.30;;;;;;;;;;5032268;28;20192;-71
2022/04/12 13:20:30;;;;;;;3.10;1.93;;;;;;;;;;5005909;28;21422;-71
2022/04/12 13:22:56;;;;;;;6.63;1.87;;;;;;;;;;5020642;28;20446;-71
2022/04/12 13:25:22;;;;;;;2.60;1.93;;;;;;;;;;5024352;28;21820;-72
2022/04/12 13:27:49;;;;;;;2.10;1.50;;;;;;;;;;5004167;28;20450;-72
2022/04/12 13:30:15;;;;;;;5.27;1.67;;;;;;;;;;5025805;28;20220;-72
2022/04/12 13:32:43;;;;;;;4.23;1.97;;;;;;;;;;5009091;28;20437;-72
2022/04/12 13:35:32;;;;;;;2.47;1.60;;;;;;;;;;5011864;28;20463;-73
2022/04/12 13:37:59;;;;;;;2.83;1.90;;;;;;;;;;5019315;28;20451;-71
2022/04/12 13:41:03;;;;;;;;;;;;;;;;;;;;;
2022/04/12 13:43:30;;;;;;;2.43;1.70;;;;;;;;;;5026468;28;20784;-74
2022/04/12 13:45:56;;;;;;;3.70;1.93;;;;;;;;;;5002690;28;20495;-73
2022/04/12 13:48:22;;;;;;;3.60;1.93;;;;;;;;;;5029687;28;20442;-72
2022/04/12 13:50:51;;;;;;;3.67;1.80;;;;;;;;;;5012632;28;20821;-73
2022/04/12 13:53:17;;;;;;;4.33;1.60;;;;;;;;;;5010203;28;20443;-73
2022/04/12 13:55:43;;;;;;;3.40;1.70;;;;;;;;;;5048171;28;20447;-72
2022/04/12 13:58:14;;;;;;;3.90;1.90;;;;;;;;;;5014242;28;20743;-72
2022/04/12 14:00:41;;;;;;;4.40;2.00;;;;;;;;;;5027429;28;20466;-72
2022/04/12 14:03:29;;;;;;;3.50;1.80;;;;;;;;;;5011093;28;20707;-74
2022/04/12 14:06:01;;;;;;;4.50;1.50;;;;;;;;;;5006788;28;20548;-72
2022/04/12 14:08:55;;;;;;;2.97;1.60;;;;;;;;;;5026541;28;20593;-73
2022/04/12 14:11:31;;;;;;;3.17;1.50;;;;;;;;;;5023995;28;20513;-73
2022/04/12 14:14:24;;;;;;;2.93;1.60;;;;;;;;;;5015549;28;21445;-72
2022/04/12 14:16:54;;;;;;;2.20;1.33;;;;;;;;;;5023493;28;20447;-72
2022/04/12 14:19:26;;;;;;;2.70;1.70;;;;;;;;;;4992033;28;20451;-73
2022/04/12 14:21:54;;;;;;;2.97;1.30;;;;;;;;;;5013662;28;20498;-74
2022/04/12 14:24:21;;;;;;;3.37;2.80;;;;;;;;;;5004458;28;20846;-72
2022/04/12 14:26:52;;;;;;;2.57;1.57;;;;;;;;;;5007443;28;20458;-73
2022/04/12 14:29:18;;;;;;;3.07;1.60;;;;;;;;;;5012682;28;20590;-72
2022/04/12 14:31:44;;;;;;;2.40;1.30;;;;;;;;;;5014631;28;21071;-71
2022/04/12 14:34:13;;;;;;;2.53;1.60;;;;;;;;;;5000347;28;21196;-74
2022/04/12 14:36:47;;;;;;;4.77;1.60;;;;;;;;;;5003761;28;20448;-73
2022/04/12 14:39:13;;;;;;;2.77;1.50;;;;;;;;;;5021729;28;21546;-72
2022/04/12 14:41:40;;;;;;;3.40;1.30;;;;;;;;;;5026534;28;20424;-72
2022/04/12 14:44:07;;;;;;;2.00;1.47;;;;;;;;;;5001024;28;20509;-71
2022/04/12 14:46:33;;;;;;;1.90;1.40;;;;;;;;;;5019744;28;20475;-71
2022/04/12 14:48:59;;;;;;;2.87;1.43;;;;;;;;;;4995343;28;20479;-71
2022/04/12 14:51:25;;;;;;;3.30;1.10;;;;;;;;;;5007627;28;20467;-72
2022/04/12 14:53:51;;;;;;;4.90;1.53;;;;;;;;;;5023026;28;20442;-71
2022/04/12 14:56:19;;;;;;;2.90;1.67;;;;;;;;;;5022559;28;20434;-71
2022/04/12 14:58:45;;;;;;;2.90;1.80;;;;;;;;;;4992534;28;20502;-71
2022/04/12 15:01:11;;;;;;;4.33;1.60;;;;;;;;;;5016534;28;20556;-72
2022/04/12 15:03:54;;;;;;;6.43;1.50;;;;;;;;;;5011208;28;20464;-73
2022/04/12 15:06:20;;;;;;;3.43;1.73;;;;;;;;;;4986208;28;20446;-72
2022/04/12 15:08:46;;;;;;;2.57;1.50;;;;;;;;;;5023337;28;20486;-73
2022/04/12 15:11:12;;;;;;;2.97;1.50;;;;;;;;;;5014190;28;20524;-72
2022/04/12 15:13:39;;;;;;;3.30;1.50;;;;;;;;;;5023360;28;20427;-72
2022/04/12 15:16:08;;;;;;;2.83;1.90;;;;;;;;;;4992639;28;20455;-72